createdAt,value
2023-04-04T00:00:47.044Z,-0.40
2023-04-04T00:03:14.254Z,-0.40
2023-04-04T00:05:41.815Z,-0.30
2023-04-04T00:08:08.917Z,-0.30
2023-04-04T00:10:35.987Z,-0.30
2023-04-04T00:13:03.484Z,-0.30
2023-04-04T00:15:30.783Z,-0.30
2023-04-04T00:17:58.828Z,-0.30
2023-04-04T00:20:26.566Z,-0.30
2023-04-04T00:22:53.577Z,-0.30
2023-04-04T00:25:20.773Z,-0.30
2023-04-04T00:27:52.036Z,-0.30
2023-04-04T00:30:19.115Z,-0.30
2023-04-04T00:32:46.525Z,-0.40
2023-04-04T00:35:13.789Z,-0.40
2023-04-04T00:37:40.945Z,-0.40
2023-04-04T00:40:09.463Z,-0.50
2023-04-04T00:42:37.542Z,-0.50
2023-04-04T00:45:08.677Z,-0.50
2023-04-04T00:47:36.676Z,-0.60
2023-04-04T00:50:03.937Z,-0.60
2023-04-04T00:52:31.175Z,-0.70
2023-04-04T00:54:58.336Z,-0.70
2023-04-04T00:57:26.074Z,-0.80
2023-04-04T00:59:53.220Z,-0.80
2023-04-04T01:02:22.933Z,-0.80
2023-04-04T01:04:50.580Z,-0.80
2023-04-04T01:07:18.562Z,-0.90
2023-04-04T01:09:46.018Z,-0.90
2023-04-04T01:12:13.212Z,-1.00
2023-04-04T01:14:46.093Z,-1.00
2023-04-04T01:17:13.457Z,-1.10
2023-04-04T01:20:05.139Z,-1.10
2023-04-04T01:22:33.560Z,-1.20
2023-04-04T01:25:02.957Z,-1.20
2023-04-04T01:27:30.405Z,-1.20
2023-04-04T01:29:57.733Z,-1.30
2023-04-04T01:32:49.249Z,-1.40
2023-04-04T01:35:52.728Z,-1.40
2023-04-04T01:38:48.125Z,-1.40
2023-04-04T01:41:16.247Z,-1.50
2023-04-04T01:43:46.795Z,-1.50
2023-04-04T01:46:17.316Z,-1.60
2023-04-04T01:48:46.613Z,-1.60
2023-04-04T01:51:22.783Z,-1.60
2023-04-04T01:53:50.567Z,-1.70
2023-04-04T01:56:18.594Z,-1.70
2023-04-04T01:58:46.099Z,-1.70
2023-04-04T02:01:19.573Z,-1.70
2023-04-04T02:03:49.803Z,-1.80
2023-04-04T02:06:25.917Z,-1.80
2023-04-04T02:09:23.795Z,-1.80
2023-04-04T02:11:49.134Z,-1.80
2023-04-04T02:14:19.181Z,-1.90
2023-04-04T02:16:50.068Z,-1.90
2023-04-04T02:23:15.166Z,-1.90
2023-04-04T02:25:42.265Z,-2.00
2023-04-04T02:28:16.389Z,-2.00
2023-04-04T02:30:43.696Z,-2.00
2023-04-04T02:33:12.874Z,-2.00
2023-04-04T02:35:40.275Z,-2.00
2023-04-04T02:38:20.947Z,-2.00
2023-04-04T02:40:51.181Z,-2.00
2023-04-04T02:43:18.470Z,-2.00
2023-04-04T02:45:47.602Z,-2.10
2023-04-04T02:48:14.988Z,-2.10
2023-04-04T02:50:45.114Z,-2.10
2023-04-04T02:53:12.774Z,-2.20
2023-04-04T02:58:59.557Z,-2.10
2023-04-04T03:01:27.433Z,-2.20
2023-04-04T03:03:57.705Z,-2.20
2023-04-04T03:06:45.813Z,-2.20
2023-04-04T03:09:32.156Z,-2.20
2023-04-04T03:12:09.518Z,-2.20
2023-04-04T03:14:49.265Z,-2.30
2023-04-04T03:17:18.367Z,-2.20
2023-04-04T03:19:46.004Z,-2.30
2023-04-04T03:22:33.981Z,-2.30
2023-04-04T03:25:14.634Z,-2.30
2023-04-04T03:27:41.975Z,-2.30
2023-04-04T03:30:10.181Z,-2.40
2023-04-04T03:32:48.935Z,-2.30
2023-04-04T03:35:16.473Z,-2.40
2023-04-04T03:41:08.315Z,-2.40
2023-04-04T03:43:39.153Z,-2.40
2023-04-04T03:46:31.162Z,-2.40
2023-04-04T03:49:04.484Z,-2.40
2023-04-04T03:51:31.898Z,-2.50
2023-04-04T03:54:15.571Z,-2.50
2023-04-04T03:56:45.071Z,-2.50
2023-04-04T03:59:12.785Z,-2.50
2023-04-04T04:01:40.187Z,-2.60
2023-04-04T04:04:07.679Z,-2.60
2023-04-04T04:06:37.774Z,-2.60
2023-04-04T04:09:15.373Z,-2.60
2023-04-04T04:11:45.695Z,-2.60
2023-04-04T04:14:54.673Z,-2.60
2023-04-04T04:17:24.343Z,-2.60
2023-04-04T04:19:51.710Z,-2.60
2023-04-04T04:22:19.206Z,-2.60
2023-04-04T04:24:46.507Z,-2.60
2023-04-04T04:27:45.503Z,-2.60
2023-04-04T04:30:22.335Z,-2.70
2023-04-04T04:32:53.793Z,-2.70
2023-04-04T04:35:31.753Z,-2.70
2023-04-04T04:38:01.555Z,-2.70
2023-04-04T04:40:36.997Z,-2.70
2023-04-04T04:43:26.486Z,-2.70
2023-04-04T04:45:56.605Z,-2.70
2023-04-04T04:48:23.970Z,-2.70
2023-04-04T04:51:01.626Z,-2.70
2023-04-04T04:53:29.111Z,-2.70
2023-04-04T04:55:59.387Z,-2.70
2023-04-04T04:58:28.663Z,-2.70
2023-04-04T05:01:01.327Z,-2.70
2023-04-04T05:04:03.142Z,-2.60
2023-04-04T05:06:30.524Z,-2.60
2023-04-04T05:09:00.346Z,-2.60
2023-04-04T05:11:52.618Z,-2.60
2023-04-04T05:14:22.458Z,-2.60
2023-04-04T05:16:49.815Z,-2.50
2023-04-04T05:19:16.998Z,-2.50
2023-04-04T05:21:46.720Z,-2.40
2023-04-04T05:24:14.585Z,-2.30
2023-04-04T05:26:49.417Z,-2.30
2023-04-04T05:29:39.298Z,-2.20
2023-04-04T05:32:06.399Z,-2.20
2023-04-04T05:34:33.650Z,-2.10
2023-04-04T05:37:00.864Z,-2.10
2023-04-04T05:39:28.313Z,-2.00
2023-04-04T05:41:55.639Z,-2.00
2023-04-04T05:44:22.820Z,-1.90
2023-04-04T05:46:50.272Z,-1.80
2023-04-04T05:49:24.808Z,-1.80
2023-04-04T05:51:52.778Z,-1.70
2023-04-04T05:54:20.436Z,-1.60
2023-04-04T05:56:48.166Z,-1.60
2023-04-04T05:59:16.299Z,-1.50
2023-04-04T06:01:43.734Z,-1.50
2023-04-04T06:04:13.852Z,-1.30
2023-04-04T06:06:41.154Z,-1.30
2023-04-04T06:09:08.902Z,-1.20
2023-04-04T06:11:45.344Z,-1.10
2023-04-04T06:14:14.077Z,-1.00
2023-04-04T06:16:42.282Z,-0.90
2023-04-04T06:19:09.513Z,-0.80
2023-04-04T06:21:36.870Z,-0.70
2023-04-04T06:24:07.221Z,-0.60
2023-04-04T06:26:34.126Z,-0.30
2023-04-04T06:29:01.142Z,-0.30
2023-04-04T06:31:28.195Z,-0.10
2023-04-04T06:33:55.388Z,0.00
2023-04-04T06:36:23.130Z,0.20
2023-04-04T06:38:50.203Z,0.50
2023-04-04T06:41:19.607Z,1.20
2023-04-04T06:43:49.220Z,2.00
2023-04-04T06:46:16.343Z,2.40
2023-04-04T06:48:43.508Z,3.20
2023-04-04T06:51:11.405Z,3.40
2023-04-04T06:53:38.770Z,4.00
2023-04-04T06:56:06.069Z,4.30
2023-04-04T06:58:32.934Z,4.20
2023-04-04T07:01:00.025Z,4.30
2023-04-04T07:03:27.343Z,4.90
2023-04-04T07:05:54.201Z,4.80
2023-04-04T07:08:21.154Z,5.30
2023-04-04T07:10:47.964Z,5.50
2023-04-04T07:13:14.745Z,6.20
2023-04-04T07:15:48.740Z,5.70
2023-04-04T07:18:16.447Z,5.70
2023-04-04T07:20:43.830Z,5.30
2023-04-04T07:23:13.625Z,5.40
2023-04-04T07:25:40.915Z,5.10
2023-04-04T07:28:12.849Z,5.50
2023-04-04T07:30:40.851Z,5.70
2023-04-04T07:33:08.257Z,5.90
2023-04-04T07:35:35.664Z,6.00
2023-04-04T07:38:03.275Z,6.20
2023-04-04T07:40:30.539Z,6.40
2023-04-04T07:42:57.482Z,6.40
2023-04-04T07:45:24.351Z,6.40
2023-04-04T07:47:51.633Z,6.70
2023-04-04T07:50:19.685Z,7.40
2023-04-04T07:52:56.049Z,8.40
2023-04-04T07:55:25.348Z,7.80
2023-04-04T07:57:52.797Z,8.00
2023-04-04T08:00:22.071Z,8.00
2023-04-04T08:02:56.350Z,8.90
2023-04-04T08:05:23.936Z,9.90
2023-04-04T08:07:50.926Z,9.40
2023-04-04T08:10:18.972Z,9.50
2023-04-04T08:12:45.847Z,10.20
2023-04-04T08:15:12.724Z,10.40
2023-04-04T08:17:39.946Z,10.10
2023-04-04T08:20:07.908Z,9.60
2023-04-04T08:22:34.813Z,10.30
2023-04-04T08:25:01.724Z,10.90
2023-04-04T08:27:28.714Z,10.40
2023-04-04T08:29:55.552Z,9.10
2023-04-04T08:32:22.326Z,7.10
2023-04-04T08:34:49.802Z,6.60
2023-04-04T08:37:17.105Z,7.60
2023-04-04T08:39:44.209Z,9.00
2023-04-04T08:42:12.499Z,9.60
2023-04-04T08:44:41.906Z,9.10
2023-04-04T08:47:10.599Z,8.80
2023-04-04T08:49:46.707Z,8.80
2023-04-04T08:52:19.229Z,8.50
2023-04-04T08:54:48.037Z,9.20
2023-04-04T08:57:15.060Z,10.00
2023-04-04T08:59:42.601Z,9.90
2023-04-04T09:02:09.447Z,9.60
2023-04-04T09:04:37.237Z,10.30
2023-04-04T09:07:05.273Z,10.60
2023-04-04T09:09:35.269Z,9.30
2023-04-04T09:12:03.471Z,8.00
2023-04-04T09:14:31.974Z,7.30
2023-04-04T09:16:58.901Z,7.10
2023-04-04T09:19:26.490Z,6.70
2023-04-04T09:21:53.465Z,6.40
2023-04-04T09:24:20.360Z,6.40
2023-04-04T09:26:48.472Z,6.50
2023-04-04T09:29:19.432Z,6.50
2023-04-04T09:31:46.968Z,7.90
2023-04-04T09:34:19.028Z,6.80
2023-04-04T09:36:46.333Z,6.30
2023-04-04T09:39:17.235Z,7.00
2023-04-04T09:41:47.627Z,7.60
2023-04-04T09:44:15.042Z,6.60
2023-04-04T09:46:42.233Z,5.70
2023-04-04T09:49:19.224Z,5.20
2023-04-04T09:51:50.286Z,5.30
2023-04-04T09:54:29.502Z,5.20
2023-04-04T09:56:57.620Z,5.00
2023-04-04T09:59:24.714Z,5.40
2023-04-04T10:01:54.471Z,5.60
2023-04-04T10:04:21.766Z,5.60
2023-04-04T10:06:48.699Z,5.30
2023-04-04T10:09:16.335Z,5.20
2023-04-04T10:11:43.421Z,5.00
2023-04-04T10:14:10.536Z,4.80
2023-04-04T10:16:37.985Z,5.20
2023-04-04T10:19:07.914Z,6.20
2023-04-04T10:21:35.752Z,7.80
2023-04-04T10:24:09.305Z,8.40
2023-04-04T10:26:36.967Z,7.90
2023-04-04T10:29:06.027Z,8.50
2023-04-04T10:31:38.349Z,7.80
2023-04-04T10:34:38.659Z,7.80
2023-04-04T10:37:13.232Z,8.80
2023-04-04T10:39:53.366Z,9.70
2023-04-04T10:42:20.291Z,10.70
2023-04-04T10:44:47.743Z,10.90
2023-04-04T10:47:21.955Z,10.50
2023-04-04T10:49:51.588Z,10.40
2023-04-04T10:52:23.998Z,10.90
2023-04-04T10:54:54.576Z,10.90
2023-04-04T10:57:23.243Z,10.90
2023-04-04T11:00:18.891Z,10.50
2023-04-04T11:02:57.768Z,10.80
2023-04-04T11:05:51.482Z,11.30
2023-04-04T11:08:21.972Z,11.80
2023-04-04T11:10:50.613Z,11.80
2023-04-04T11:13:22.549Z,12.40
2023-04-04T11:16:07.745Z,12.10
2023-04-04T11:18:41.692Z,12.40
2023-04-04T11:21:27.453Z,12.50
2023-04-04T11:23:54.389Z,13.00
2023-04-04T11:26:30.317Z,12.90
2023-04-04T11:29:04.412Z,13.60
2023-04-04T11:31:47.982Z,12.80
2023-04-04T11:34:30.382Z,11.10
2023-04-04T11:36:58.074Z,12.20
2023-04-04T11:39:30.528Z,11.90
2023-04-04T11:42:08.812Z,11.50
2023-04-04T11:44:55.063Z,11.80
2023-04-04T11:47:24.279Z,12.10
2023-04-04T11:49:53.479Z,12.30
2023-04-04T11:52:21.539Z,11.80
2023-04-04T11:54:49.175Z,11.80
2023-04-04T11:57:18.043Z,12.70
2023-04-04T11:59:47.985Z,11.90
2023-04-04T12:02:25.001Z,12.40
2023-04-04T12:04:52.412Z,13.30
2023-04-04T12:07:20.072Z,13.80
2023-04-04T12:09:48.137Z,13.80
2023-04-04T12:12:16.608Z,13.10
2023-04-04T12:14:44.312Z,13.70
2023-04-04T12:17:11.359Z,14.20
2023-04-04T12:19:39.783Z,14.10
2023-04-04T12:22:10.870Z,14.30
2023-04-04T12:24:38.003Z,14.10
2023-04-04T12:27:06.175Z,12.90
2023-04-04T12:29:37.701Z,13.40
2023-04-04T12:32:07.757Z,13.40
2023-04-04T12:34:36.488Z,13.80
2023-04-04T12:37:04.224Z,13.70
2023-04-04T12:39:32.031Z,13.50
2023-04-04T12:42:01.711Z,14.60
2023-04-04T12:44:35.622Z,13.80
2023-04-04T12:47:05.356Z,13.70
2023-04-04T12:49:39.471Z,14.40
2023-04-04T12:52:09.074Z,14.80
2023-04-04T12:54:39.334Z,15.20
2023-04-04T12:57:07.488Z,15.00
2023-04-04T12:59:36.989Z,14.80
2023-04-04T13:02:09.183Z,14.80
2023-04-04T13:04:36.447Z,13.20
2023-04-04T13:07:04.216Z,13.40
2023-04-04T13:09:31.926Z,13.60
2023-04-04T13:12:04.685Z,13.40
2023-04-04T13:15:11.800Z,14.00
2023-04-04T13:17:49.193Z,13.90
2023-04-04T13:20:18.722Z,13.70
2023-04-04T13:22:45.670Z,13.60
2023-04-04T13:25:12.542Z,13.50
2023-04-04T13:27:39.440Z,14.20
2023-04-04T13:30:09.351Z,15.10
2023-04-04T13:32:37.172Z,16.00
2023-04-04T13:35:04.354Z,15.80
2023-04-04T13:37:40.448Z,15.20
2023-04-04T13:40:08.190Z,14.40
2023-04-04T13:42:35.549Z,12.70
2023-04-04T13:45:02.497Z,12.40
2023-04-04T13:47:29.374Z,12.80
2023-04-04T13:49:56.329Z,13.20
2023-04-04T13:52:23.841Z,14.10
2023-04-04T13:54:51.204Z,15.20
2023-04-04T13:57:18.061Z,14.40
2023-04-04T13:59:45.018Z,13.80
2023-04-04T14:02:12.319Z,13.80
2023-04-04T14:04:39.181Z,12.50
2023-04-04T14:07:06.322Z,11.50
2023-04-04T14:09:33.177Z,10.00
2023-04-04T14:12:00.241Z,9.00
2023-04-04T14:14:27.074Z,8.40
2023-04-04T14:16:54.060Z,8.20
2023-04-04T14:19:21.107Z,8.50
2023-04-04T14:21:48.936Z,9.70
2023-04-04T14:24:15.859Z,11.40
2023-04-04T14:26:42.887Z,12.10
2023-04-04T14:29:09.884Z,13.10
2023-04-04T14:31:36.888Z,12.90
2023-04-04T14:34:04.650Z,14.10
2023-04-04T14:36:31.868Z,14.30
2023-04-04T14:38:59.452Z,13.00
2023-04-04T14:41:26.256Z,10.90
2023-04-04T14:43:53.038Z,9.10
2023-04-04T14:46:20.079Z,8.30
2023-04-04T14:48:47.660Z,7.60
2023-04-04T14:51:14.818Z,7.80
2023-04-04T14:53:42.234Z,9.00
2023-04-04T14:56:09.223Z,10.40
2023-04-04T14:58:36.050Z,11.50
2023-04-04T15:01:03.759Z,12.10
2023-04-04T15:03:35.015Z,13.10
2023-04-04T15:06:03.345Z,13.20
2023-04-04T15:08:30.593Z,13.40
2023-04-04T15:10:57.598Z,14.10
2023-04-04T15:13:24.486Z,14.90
2023-04-04T15:15:51.383Z,13.70
2023-04-04T15:18:18.227Z,12.40
2023-04-04T15:20:45.300Z,10.40
2023-04-04T15:23:12.366Z,8.60
2023-04-04T15:25:39.254Z,7.40
2023-04-04T15:28:06.132Z,6.80
2023-04-04T15:30:33.484Z,6.50
2023-04-04T15:33:00.338Z,6.60
2023-04-04T15:35:27.308Z,6.60
2023-04-04T15:37:54.194Z,6.60
2023-04-04T15:40:21.480Z,7.60
2023-04-04T15:42:48.511Z,9.50
2023-04-04T15:45:16.071Z,10.40
2023-04-04T15:47:43.760Z,11.50
2023-04-04T15:50:11.932Z,12.30
2023-04-04T15:52:39.049Z,12.30
2023-04-04T15:55:11.816Z,12.10
2023-04-04T15:57:39.327Z,10.20
2023-04-04T16:00:07.190Z,9.10
2023-04-04T16:02:34.078Z,7.80
2023-04-04T16:05:00.978Z,6.50
2023-04-04T16:07:27.827Z,5.80
2023-04-04T16:09:55.327Z,6.30
2023-04-04T16:12:22.543Z,7.40
2023-04-04T16:14:49.365Z,8.10
2023-04-04T16:17:16.257Z,8.50
2023-04-04T16:19:43.085Z,9.10
2023-04-04T16:22:09.925Z,9.20
2023-04-04T16:24:37.289Z,9.40
2023-04-04T16:27:04.351Z,9.60
2023-04-04T16:29:31.670Z,9.70
2023-04-04T16:31:58.444Z,9.00
2023-04-04T16:34:25.218Z,8.60
2023-04-04T16:36:52.145Z,8.90
2023-04-04T16:39:19.132Z,8.30
2023-04-04T16:41:46.266Z,8.10
2023-04-04T16:44:13.355Z,8.30
2023-04-04T16:46:40.663Z,8.20
2023-04-04T16:49:08.436Z,7.70
2023-04-04T16:51:35.775Z,6.90
2023-04-04T16:54:02.569Z,6.10
2023-04-04T16:56:30.700Z,5.50
2023-04-04T16:59:01.365Z,5.10
2023-04-04T17:01:31.681Z,4.70
2023-04-04T17:03:59.266Z,4.40
2023-04-04T17:06:27.320Z,4.10
2023-04-04T17:08:54.248Z,4.00
2023-04-04T17:11:21.695Z,3.80
2023-04-04T17:13:48.708Z,3.70
2023-04-04T17:16:15.646Z,3.60
2023-04-04T17:18:42.726Z,3.50
2023-04-04T17:21:09.718Z,3.40
2023-04-04T17:23:36.674Z,3.30
2023-04-04T17:26:06.700Z,3.20
2023-04-04T17:28:33.676Z,3.10
2023-04-04T17:31:00.604Z,3.10
2023-04-04T17:33:27.658Z,3.00
2023-04-04T17:35:54.755Z,2.90
2023-04-04T17:38:22.036Z,2.80
2023-04-04T17:40:54.087Z,2.80
2023-04-04T17:43:21.399Z,2.70
2023-04-04T17:45:48.323Z,2.60
2023-04-04T17:48:15.270Z,2.60
2023-04-04T17:50:43.325Z,2.50
2023-04-04T17:53:10.390Z,2.50
2023-04-04T17:55:44.988Z,2.40
2023-04-04T17:58:12.306Z,2.40
2023-04-04T18:00:39.715Z,2.30
2023-04-04T18:03:07.120Z,2.30
2023-04-04T18:05:34.395Z,2.20
2023-04-04T18:08:04.865Z,2.20
2023-04-04T18:10:32.217Z,2.10
2023-04-04T18:12:59.057Z,2.10
2023-04-04T18:15:26.211Z,2.00
2023-04-04T18:17:53.733Z,2.00
2023-04-04T18:20:34.038Z,1.90
2023-04-04T18:23:04.284Z,1.90
2023-04-04T18:25:32.432Z,1.90
2023-04-04T18:27:59.787Z,1.80
2023-04-04T18:30:26.754Z,1.80
2023-04-04T18:32:53.715Z,1.80
2023-04-04T18:35:20.666Z,1.80
2023-04-04T18:37:47.519Z,1.80
2023-04-04T18:40:14.504Z,1.70
2023-04-04T18:42:41.706Z,1.70
2023-04-04T18:45:09.697Z,1.70
2023-04-04T18:47:37.117Z,1.70
2023-04-04T18:50:04.435Z,1.60
2023-04-04T18:52:31.689Z,1.60
2023-04-04T18:54:58.664Z,1.60
2023-04-04T18:57:26.114Z,1.60
2023-04-04T18:59:55.788Z,1.50
2023-04-04T19:02:23.032Z,1.60
2023-04-04T19:04:53.095Z,1.50
2023-04-04T19:07:24.745Z,1.50
2023-04-04T19:09:52.591Z,1.50
2023-04-04T19:12:19.768Z,1.40
2023-04-04T19:14:46.901Z,1.40
2023-04-04T19:17:15.801Z,1.30
2023-04-04T19:19:43.470Z,1.30
2023-04-04T19:22:10.890Z,1.30
2023-04-04T19:24:40.411Z,1.30
2023-04-04T19:27:07.900Z,1.30
2023-04-04T19:29:36.444Z,1.20
2023-04-04T19:32:24.765Z,1.10
2023-04-04T19:34:52.307Z,1.10
2023-04-04T19:37:19.411Z,1.10
2023-04-04T19:39:49.533Z,1.10
2023-04-04T19:42:25.022Z,1.20
2023-04-04T19:44:51.989Z,1.10
2023-04-04T19:47:20.603Z,1.10
2023-04-04T19:49:57.091Z,1.10
2023-04-04T19:52:24.569Z,1.00
2023-04-04T19:54:51.479Z,1.00
2023-04-04T19:57:20.918Z,0.90
2023-04-04T19:59:58.678Z,1.00
2023-04-04T20:02:31.442Z,1.00
2023-04-04T20:04:58.576Z,0.90
2023-04-04T20:07:26.099Z,0.90
2023-04-04T20:09:53.363Z,0.80
2023-04-04T20:12:24.198Z,0.80
2023-04-04T20:14:52.169Z,0.80
2023-04-04T20:17:24.090Z,0.70
2023-04-04T20:19:52.490Z,0.60
2023-04-04T20:22:19.980Z,0.70
2023-04-04T20:24:49.914Z,0.60
2023-04-04T20:27:24.461Z,0.60
2023-04-04T20:29:53.565Z,0.60
2023-04-04T20:32:20.797Z,0.50
2023-04-04T20:34:50.489Z,0.60
2023-04-04T20:37:26.560Z,0.50
2023-04-04T20:40:21.254Z,0.60
2023-04-04T20:42:48.462Z,0.70
2023-04-04T20:45:31.660Z,0.60
2023-04-04T20:51:23.761Z,0.70
2023-04-04T20:53:58.181Z,0.60
2023-04-04T20:56:44.434Z,0.60
2023-04-04T20:59:31.053Z,0.60
2023-04-04T21:02:11.709Z,0.50
2023-04-04T21:04:54.757Z,0.30
2023-04-04T21:07:43.852Z,0.30
2023-04-04T21:10:32.176Z,0.30
2023-04-04T21:16:26.392Z,0.30
2023-04-04T21:19:01.655Z,0.40
2023-04-04T21:21:36.824Z,0.20
2023-04-04T21:24:10.402Z,0.20
2023-04-04T21:26:39.491Z,0.20
2023-04-04T21:29:26.282Z,0.20
2023-04-04T21:31:55.775Z,0.20
2023-04-04T21:34:36.574Z,0.20
2023-04-04T21:37:05.697Z,0.20
2023-04-04T21:39:32.927Z,0.20
2023-04-04T21:42:08.589Z,0.30
2023-04-04T21:44:36.418Z,0.30
2023-04-04T21:47:03.587Z,0.30
2023-04-04T21:49:37.098Z,0.20
2023-04-04T21:52:04.416Z,0.10
2023-04-04T21:54:31.804Z,0.00
2023-04-04T21:56:59.156Z,-0.10
2023-04-04T21:59:31.754Z,0.00
2023-04-04T22:01:59.134Z,-0.10
2023-04-04T22:04:26.276Z,-0.10
2023-04-04T22:06:53.260Z,-0.10
2023-04-04T22:09:22.715Z,-0.10
2023-04-04T22:11:50.258Z,-0.10
2023-04-04T22:14:17.654Z,-0.10
2023-04-04T22:16:45.399Z,-0.10
2023-04-04T22:19:15.741Z,-0.10
2023-04-04T22:21:48.350Z,-0.20
2023-04-04T22:24:16.022Z,-0.20
2023-04-04T22:26:46.009Z,-0.20
2023-04-04T22:29:13.315Z,-0.30
2023-04-04T22:31:40.525Z,-0.30
2023-04-04T22:34:08.010Z,-0.40
2023-04-04T22:36:35.731Z,-0.40
2023-04-04T22:39:02.950Z,-0.40
2023-04-04T22:41:30.044Z,-0.40
2023-04-04T22:43:58.053Z,-0.40
2023-04-04T22:46:26.680Z,-0.50
2023-04-04T22:49:14.377Z,-0.50
2023-04-04T22:51:45.932Z,-0.50
2023-04-04T22:54:17.008Z,-0.60
2023-04-04T22:56:44.463Z,-0.50
2023-04-04T22:59:11.790Z,-0.50
2023-04-04T23:01:39.548Z,-0.50
2023-04-04T23:04:16.448Z,-0.50
2023-04-04T23:06:45.182Z,-0.60
2023-04-04T23:09:12.917Z,-0.60
2023-04-04T23:11:43.143Z,-0.50
2023-04-04T23:14:14.921Z,-0.60
2023-04-04T23:16:42.807Z,-0.50
2023-04-04T23:19:10.506Z,-0.50
2023-04-04T23:21:38.187Z,-0.50
2023-04-04T23:24:07.081Z,-0.50
2023-04-04T23:26:34.539Z,-0.60
2023-04-04T23:29:04.735Z,-0.60
2023-04-04T23:31:32.057Z,-0.60
2023-04-04T23:34:05.597Z,-0.60
2023-04-04T23:36:33.015Z,-0.60
2023-04-04T23:39:00.118Z,-0.60
2023-04-04T23:41:27.544Z,-0.60
2023-04-04T23:43:54.915Z,-0.60
2023-04-04T23:46:22.789Z,-0.60
2023-04-04T23:48:50.578Z,-0.60
2023-04-04T23:51:17.907Z,-0.60
2023-04-04T23:53:45.202Z,-0.70
2023-04-04T23:56:12.594Z,-0.70
2023-04-04T23:58:49.311Z,-0.70
